Time;durP1;ratioP1;P1;durP2;ratioP2;P2;SDS_P1;SDS_P2;PMS_P1;PMS_P2;Temp;Humidity;BMP_temperature;BMP_pressure;BME280_temperature;BME280_humidity;BME280_pressure;Samples;Min_cycle;Max_cycle;Signal;HPM_P1;HPM_P2
2021/05/01 00:00:52;;;;;;;26.97;20.73;;;;;;;;;;4972115;28;20183;-88
2021/05/01 00:03:56;;;;;;;26.47;20.67;;;;;;;;;;4971838;28;20210;-88
2021/05/01 00:07:01;;;;;;;27.43;21.47;;;;;;;;;;4971696;28;20178;-88
2021/05/01 00:10:06;;;;;;;27.17;20.83;;;;;;;;;;4971422;28;20526;-88
2021/05/01 00:13:11;;;;;;;27.77;21.67;;;;;;;;;;4971430;28;20210;-88
2021/05/01 00:16:15;;;;;;;28.87;22.17;;;;;;;;;;4971649;28;20190;-88
2021/05/01 00:19:19;;;;;;;26.50;22.23;;;;;;;;;;4993576;28;20191;-88
2021/05/01 00:22:23;;;;;;;31.57;22.53;;;;;;;;;;4970922;28;20174;-88
2021/05/01 00:25:27;;;;;;;28.67;22.83;;;;;;;;;;4993729;28;20186;-88
2021/05/01 00:28:32;;;;;;;31.20;23.60;;;;;;;;;;4971370;28;20190;-88
2021/05/01 00:31:36;;;;;;;30.70;23.60;;;;;;;;;;4982189;28;20201;-88
2021/05/01 00:34:50;;;;;;;32.87;23.60;;;;;;;;;;4983667;28;20178;-88
2021/05/01 00:37:57;;;;;;;29.80;23.50;;;;;;;;;;4993352;28;20190;-88
2021/05/01 00:41:01;;;;;;;31.83;24.17;;;;;;;;;;4993317;28;20652;-88
2021/05/01 00:44:06;;;;;;;31.50;24.33;;;;;;;;;;4982176;28;20217;-88
2021/05/01 00:47:23;;;;;;;32.47;25.00;;;;;;;;;;4982226;28;20186;-88
2021/05/01 00:50:27;;;;;;;28.07;21.83;;;;;;;;;;4981985;28;20186;-87
2021/05/01 00:53:34;;;;;;;28.80;22.53;;;;;;;;;;4973646;28;20222;-87
2021/05/01 00:56:39;;;;;;;30.10;22.57;;;;;;;;;;4970716;28;20186;-88
2021/05/01 00:59:43;;;;;;;26.77;21.23;;;;;;;;;;4959713;28;20182;-88
2021/05/01 01:02:47;;;;;;;27.63;22.50;;;;;;;;;;4982172;28;20696;-87
2021/05/01 01:05:51;;;;;;;29.50;22.27;;;;;;;;;;4981915;28;20182;-88
2021/05/01 01:08:56;;;;;;;30.17;23.10;;;;;;;;;;4982333;28;20182;-88
2021/05/01 01:12:01;;;;;;;28.07;21.63;;;;;;;;;;4962398;28;20677;-88
2021/05/01 01:15:06;;;;;;;30.00;23.20;;;;;;;;;;4951616;28;20187;-88
2021/05/01 01:18:11;;;;;;;29.37;23.37;;;;;;;;;;4955025;28;20523;-88
2021/05/01 01:21:15;;;;;;;31.13;24.33;;;;;;;;;;4966551;28;20614;-88
2021/05/01 01:24:19;;;;;;;32.73;24.33;;;;;;;;;;4955322;28;20226;-88
2021/05/01 01:27:23;;;;;;;29.77;22.10;;;;;;;;;;4966481;28;20190;-88
2021/05/01 01:30:32;;;;;;;31.57;23.13;;;;;;;;;;4966263;28;20186;-88
2021/05/01 01:33:37;;;;;;;27.77;21.93;;;;;;;;;;4966059;28;20547;-88
2021/05/01 01:36:41;;;;;;;29.93;23.13;;;;;;;;;;4954940;28;20187;-88
2021/05/01 01:39:45;;;;;;;29.57;22.20;;;;;;;;;;4985352;28;20190;-88
2021/05/01 01:42:50;;;;;;;30.30;22.67;;;;;;;;;;4976872;28;20566;-89
2021/05/01 01:45:54;;;;;;;32.03;22.87;;;;;;;;;;4965825;28;20187;-88
2021/05/01 01:48:59;;;;;;;30.23;23.47;;;;;;;;;;4987941;28;20182;-87
2021/05/01 01:52:03;;;;;;;29.30;22.80;;;;;;;;;;4965540;28;20226;-88
2021/05/01 01:55:11;;;;;;;31.03;23.10;;;;;;;;;;4965609;28;20198;-88
2021/05/01 01:58:19;;;;;;;31.50;22.70;;;;;;;;;;4987971;28;20183;-87
2021/05/01 02:01:29;;;;;;;30.10;23.40;;;;;;;;;;4987046;28;20630;-87
2021/05/01 02:04:44;;;;;;;31.83;23.80;;;;;;;;;;4976647;28;20556;-88
2021/05/01 02:07:57;;;;;;;30.20;23.17;;;;;;;;;;4986447;28;20187;-88
2021/05/01 02:11:07;;;;;;;33.23;23.10;;;;;;;;;;4976541;28;20183;-87
2021/05/01 02:14:12;;;;;;;29.23;22.27;;;;;;;;;;4987868;28;20230;-87
2021/05/01 02:17:16;;;;;;;31.43;22.70;;;;;;;;;;4962302;28;20653;-88
2021/05/01 02:20:23;;;;;;;30.20;23.23;;;;;;;;;;4995620;28;20186;-88
2021/05/01 02:23:32;;;;;;;32.57;25.00;;;;;;;;;;4984674;28;20222;-87
2021/05/01 02:26:37;;;;;;;30.47;22.77;;;;;;;;;;4984675;28;20518;-88
2021/05/01 02:29:41;;;;;;;31.47;23.70;;;;;;;;;;4973327;28;20178;-88
2021/05/01 02:32:47;;;;;;;28.97;22.37;;;;;;;;;;4984208;28;20225;-87
2021/05/01 02:35:51;;;;;;;28.03;21.10;;;;;;;;;;4965262;28;20210;-88
2021/05/01 02:38:55;;;;;;;28.97;22.10;;;;;;;;;;4973044;28;20198;-88
2021/05/01 02:41:59;;;;;;;29.27;21.83;;;;;;;;;;4973778;28;20507;-88
2021/05/01 02:45:06;;;;;;;28.50;21.73;;;;;;;;;;4973228;28;20175;-88
2021/05/01 02:48:11;;;;;;;29.40;22.20;;;;;;;;;;4984373;28;20182;-88
2021/05/01 02:51:18;;;;;;;32.00;23.60;;;;;;;;;;4983910;28;20647;-88
2021/05/01 02:54:23;;;;;;;29.30;22.17;;;;;;;;;;4972682;28;20221;-88
2021/05/01 02:57:28;;;;;;;28.50;21.30;;;;;;;;;;4983896;28;20633;-88
2021/05/01 03:00:32;;;;;;;29.73;21.53;;;;;;;;;;4995205;28;20186;-88
2021/05/01 03:03:36;;;;;;;30.33;22.20;;;;;;;;;;4983677;28;20218;-88
2021/05/01 03:06:40;;;;;;;30.20;22.47;;;;;;;;;;4993804;28;20625;-88
2021/05/01 03:09:45;;;;;;;28.80;21.83;;;;;;;;;;4975493;28;20195;-88
2021/05/01 03:12:48;;;;;;;29.30;22.10;;;;;;;;;;4963905;28;20226;-88
2021/05/01 03:15:52;;;;;;;28.93;22.67;;;;;;;;;;4975276;28;20202;-88
2021/05/01 03:18:56;;;;;;;28.77;21.70;;;;;;;;;;4954086;28;20519;-88
2021/05/01 03:22:01;;;;;;;27.90;21.87;;;;;;;;;;4970912;28;20175;-88
2021/05/01 03:25:07;;;;;;;27.93;21.67;;;;;;;;;;4977347;28;20194;-88
2021/05/01 03:28:11;;;;;;;30.00;22.43;;;;;;;;;;4983396;28;20175;-88
2021/05/01 03:31:15;;;;;;;27.97;22.00;;;;;;;;;;4972038;28;20186;-88
2021/05/01 03:34:19;;;;;;;29.67;22.57;;;;;;;;;;4982674;28;20578;-88
2021/05/01 03:37:23;;;;;;;30.60;23.13;;;;;;;;;;4981478;28;20681;-87
2021/05/01 03:40:28;;;;;;;29.17;22.40;;;;;;;;;;4970271;28;20170;-87
2021/05/01 03:43:33;;;;;;;29.10;22.17;;;;;;;;;;4970176;28;20234;-88
2021/05/01 03:46:38;;;;;;;30.80;22.73;;;;;;;;;;4981101;28;20202;-89
2021/05/01 03:49:42;;;;;;;30.93;23.53;;;;;;;;;;4981366;28;20963;-89
2021/05/01 03:52:47;;;;;;;29.83;21.90;;;;;;;;;;4981192;28;20226;-88
2021/05/01 03:55:51;;;;;;;30.47;22.20;;;;;;;;;;4991597;28;20186;-90
2021/05/01 03:58:55;;;;;;;31.47;23.23;;;;;;;;;;4961852;28;20187;-89
2021/05/01 04:01:59;;;;;;;32.70;22.97;;;;;;;;;;4980991;28;20576;-89
2021/05/01 04:05:04;;;;;;;29.70;23.10;;;;;;;;;;4970041;28;20637;-89
2021/05/01 04:08:08;;;;;;;30.53;22.83;;;;;;;;;;4981105;28;20526;-88
2021/05/01 04:11:13;;;;;;;31.80;22.97;;;;;;;;;;4983435;28;20694;-90
2021/05/01 04:14:17;;;;;;;28.13;21.73;;;;;;;;;;4972448;28;20585;-89
2021/05/01 04:17:21;;;;;;;32.20;22.77;;;;;;;;;;4972566;28;20202;-89
2021/05/01 04:20:25;;;;;;;30.87;22.80;;;;;;;;;;4973575;28;20207;-88
2021/05/01 04:23:29;;;;;;;32.47;23.80;;;;;;;;;;4973774;28;20226;-88
2021/05/01 04:26:34;;;;;;;30.17;23.13;;;;;;;;;;4961444;28;20186;-88
2021/05/01 04:29:39;;;;;;;32.10;24.10;;;;;;;;;;4972303;28;20178;-88
2021/05/01 04:32:43;;;;;;;34.57;23.03;;;;;;;;;;4961016;28;20238;-89
2021/05/01 04:35:47;;;;;;;28.47;22.13;;;;;;;;;;4971710;28;20191;-88
2021/05/01 04:38:52;;;;;;;33.13;24.10;;;;;;;;;;4961092;28;20190;-88
2021/05/01 04:41:56;;;;;;;33.03;23.90;;;;;;;;;;4972168;28;20202;-88
2021/05/01 04:45:01;;;;;;;32.63;24.20;;;;;;;;;;4977974;28;20205;-89
2021/05/01 04:48:06;;;;;;;35.53;25.90;;;;;;;;;;4990831;28;20189;-88
2021/05/01 04:51:11;;;;;;;33.60;23.77;;;;;;;;;;4980250;28;20198;-88
2021/05/01 04:54:15;;;;;;;33.67;24.27;;;;;;;;;;4975947;28;20214;-88
2021/05/01 04:57:20;;;;;;;30.97;23.03;;;;;;;;;;4954713;28;20718;-88
2021/05/01 05:00:24;;;;;;;34.70;24.27;;;;;;;;;;4984165;28;20515;-88
2021/05/01 05:03:28;;;;;;;33.60;23.93;;;;;;;;;;4995261;28;20209;-88
2021/05/01 05:06:32;;;;;;;30.13;23.17;;;;;;;;;;4965048;28;20198;-88
2021/05/01 05:09:36;;;;;;;30.07;22.90;;;;;;;;;;4953495;28;20194;-88
2021/05/01 05:12:42;;;;;;;30.50;22.30;;;;;;;;;;4975404;28;20218;-89
2021/05/01 05:15:46;;;;;;;27.83;21.33;;;;;;;;;;4975691;28;20183;-89
2021/05/01 05:18:51;;;;;;;30.03;23.53;;;;;;;;;;4955397;28;20190;-88
2021/05/01 05:21:55;;;;;;;32.37;23.83;;;;;;;;;;4964231;28;20202;-88
2021/05/01 05:24:59;;;;;;;30.87;22.57;;;;;;;;;;4951269;28;20650;-87
2021/05/01 05:28:05;;;;;;;35.23;24.40;;;;;;;;;;4964597;28;20179;-88
2021/05/01 05:31:09;;;;;;;30.20;22.63;;;;;;;;;;4964307;28;20274;-87
2021/05/01 05:34:13;;;;;;;31.07;23.97;;;;;;;;;;4963744;28;20222;-87
2021/05/01 05:37:17;;;;;;;30.53;23.90;;;;;;;;;;4964053;28;20198;-88
2021/05/01 05:40:22;;;;;;;30.03;23.13;;;;;;;;;;4964641;28;20179;-87
2021/05/01 05:43:28;;;;;;;33.90;25.83;;;;;;;;;;4970840;28;20221;-87
2021/05/01 05:46:32;;;;;;;32.27;24.83;;;;;;;;;;5033039;23;20232;-83
2021/05/01 05:49:37;;;;;;;33.10;24.57;;;;;;;;;;5005153;28;20177;-83
2021/05/01 05:52:41;;;;;;;30.40;22.60;;;;;;;;;;4988974;28;20221;-84
2021/05/01 05:55:45;;;;;;;28.73;22.30;;;;;;;;;;4985521;28;20221;-84
2021/05/01 05:58:50;;;;;;;31.60;23.63;;;;;;;;;;4974632;28;20186;-84
2021/05/01 06:01:55;;;;;;;29.90;22.53;;;;;;;;;;4994824;28;20647;-83
2021/05/01 06:05:06;;;;;;;32.67;24.60;;;;;;;;;;5005153;28;20217;-84
2021/05/01 06:08:11;;;;;;;30.03;22.53;;;;;;;;;;5016632;28;20182;-85
2021/05/01 06:11:20;;;;;;;33.40;24.43;;;;;;;;;;5004533;28;20189;-85
2021/05/01 06:14:26;;;;;;;32.10;23.97;;;;;;;;;;4985277;28;20558;-85
2021/05/01 06:17:31;;;;;;;31.57;24.27;;;;;;;;;;4974475;28;20178;-84
2021/05/01 06:20:35;;;;;;;32.23;23.77;;;;;;;;;;4974390;28;20178;-84
2021/05/01 06:23:40;;;;;;;34.80;25.63;;;;;;;;;;4989949;28;20197;-84
2021/05/01 06:26:44;;;;;;;34.77;25.60;;;;;;;;;;4993220;28;20217;-83
2021/05/01 06:29:49;;;;;;;38.83;27.40;;;;;;;;;;5005709;28;20205;-83
2021/05/01 06:32:54;;;;;;;37.93;26.43;;;;;;;;;;5004570;28;20703;-83
2021/05/01 06:35:59;;;;;;;36.63;26.17;;;;;;;;;;4993402;28;20216;-83
2021/05/01 06:39:05;;;;;;;36.57;25.07;;;;;;;;;;4995072;28;20540;-83
2021/05/01 06:42:15;;;;;;;40.53;27.47;;;;;;;;;;4993245;28;20534;-83
2021/05/01 06:45:21;;;;;;;36.47;25.80;;;;;;;;;;4992653;28;20217;-83
2021/05/01 06:48:26;;;;;;;33.27;25.37;;;;;;;;;;4993497;28;20186;-83
2021/05/01 06:51:30;;;;;;;32.13;24.30;;;;;;;;;;4981771;28;20193;-83
2021/05/01 06:54:35;;;;;;;33.13;24.70;;;;;;;;;;4984723;28;20206;-83
2021/05/01 06:57:44;;;;;;;30.27;22.53;;;;;;;;;;4986507;28;20186;-83
2021/05/01 07:00:49;;;;;;;29.87;22.13;;;;;;;;;;4995735;28;20194;-83
2021/05/01 07:03:53;;;;;;;29.43;21.80;;;;;;;;;;4984512;28;20658;-84
2021/05/01 07:06:58;;;;;;;29.03;21.93;;;;;;;;;;4984939;28;20182;-84
2021/05/01 07:10:09;;;;;;;31.07;23.27;;;;;;;;;;4995336;28;20186;-83
2021/05/01 07:13:14;;;;;;;29.60;21.80;;;;;;;;;;4973065;28;20217;-83
2021/05/01 07:16:18;;;;;;;31.03;21.50;;;;;;;;;;4994480;28;20681;-83
2021/05/01 07:19:23;;;;;;;30.87;22.67;;;;;;;;;;4995029;28;20182;-83
2021/05/01 07:22:28;;;;;;;30.37;22.77;;;;;;;;;;4972560;28;20546;-84
2021/05/01 07:25:32;;;;;;;29.80;21.93;;;;;;;;;;4984424;28;20217;-84
2021/05/01 07:28:53;;;;;;;28.77;21.90;;;;;;;;;;4975412;28;20197;-83
2021/05/01 07:31:57;;;;;;;29.10;22.13;;;;;;;;;;4984137;28;20198;-83
2021/05/01 07:35:05;;;;;;;34.93;22.10;;;;;;;;;;4997810;28;20232;-83
2021/05/01 07:38:12;;;;;;;32.83;22.80;;;;;;;;;;5003507;28;20552;-83
2021/05/01 07:41:16;;;;;;;29.53;22.17;;;;;;;;;;4992726;28;20192;-83
2021/05/01 07:44:24;;;;;;;29.50;22.57;;;;;;;;;;4981586;28;20647;-83
2021/05/01 07:47:29;;;;;;;27.23;21.40;;;;;;;;;;5004345;28;20208;-84
2021/05/01 07:50:33;;;;;;;29.57;20.93;;;;;;;;;;4981776;28;20212;-83
2021/05/01 07:53:38;;;;;;;30.83;22.50;;;;;;;;;;4991927;28;20217;-83
2021/05/01 07:56:42;;;;;;;29.83;22.33;;;;;;;;;;4991580;28;20220;-82
2021/05/01 07:59:46;;;;;;;30.10;22.97;;;;;;;;;;4991440;28;20208;-82
2021/05/01 08:02:50;;;;;;;36.03;21.70;;;;;;;;;;4993148;28;20197;-82
2021/05/01 08:05:54;;;;;;;29.03;22.60;;;;;;;;;;5003046;28;20706;-83
2021/05/01 08:08:59;;;;;;;33.70;24.53;;;;;;;;;;5013842;28;20625;-83
2021/05/01 08:12:17;;;;;;;36.63;26.00;;;;;;;;;;4983753;28;20204;-83
2021/05/01 08:15:21;;;;;;;37.17;27.07;;;;;;;;;;5002621;28;20220;-83
2021/05/01 08:18:26;;;;;;;38.33;28.47;;;;;;;;;;4981755;28;20656;-83
2021/05/01 08:21:31;;;;;;;38.17;25.97;;;;;;;;;;4981118;28;20185;-82
2021/05/01 08:24:36;;;;;;;37.53;27.43;;;;;;;;;;4981184;28;20185;-83
2021/05/01 08:27:41;;;;;;;36.60;27.47;;;;;;;;;;4994207;28;20204;-83
2021/05/01 08:30:45;;;;;;;37.60;27.53;;;;;;;;;;4988696;28;20189;-83
2021/05/01 08:33:49;;;;;;;36.13;26.80;;;;;;;;;;4989159;28;20216;-84
2021/05/01 08:36:53;;;;;;;39.27;27.53;;;;;;;;;;4989131;28;20659;-82
2021/05/01 08:39:57;;;;;;;35.23;26.53;;;;;;;;;;4999740;28;20181;-83
2021/05/01 08:43:01;;;;;;;33.30;24.63;;;;;;;;;;4988651;28;20201;-82
2021/05/01 08:46:12;;;;;;;32.97;25.03;;;;;;;;;;4989054;28;20224;-83
2021/05/01 08:49:16;;;;;;;31.70;24.77;;;;;;;;;;4999875;28;20587;-84
2021/05/01 08:52:21;;;;;;;31.33;23.23;;;;;;;;;;4988616;28;20257;-84
2021/05/01 08:55:26;;;;;;;47.10;24.03;;;;;;;;;;4999872;28;20232;-84
2021/05/01 08:58:31;;;;;;;41.67;24.20;;;;;;;;;;4977630;28;20180;-83
2021/05/01 09:01:37;;;;;;;27.93;22.80;;;;;;;;;;4988702;28;20201;-83
2021/05/01 09:04:46;;;;;;;29.13;21.80;;;;;;;;;;4988866;28;20224;-83
2021/05/01 09:07:51;;;;;;;25.50;20.30;;;;;;;;;;4993414;28;20208;-83
2021/05/01 09:11:02;;;;;;;24.77;19.63;;;;;;;;;;5000314;28;20248;-84
2021/05/01 09:14:22;;;;;;;25.77;20.33;;;;;;;;;;5001647;28;20699;-87
2021/05/01 09:17:27;;;;;;;25.60;20.90;;;;;;;;;;5001430;28;20201;-83
2021/05/01 09:20:36;;;;;;;25.67;19.53;;;;;;;;;;5012751;28;20193;-83
2021/05/01 09:23:50;;;;;;;22.40;17.57;;;;;;;;;;4992173;28;20192;-83
2021/05/01 09:27:07;;;;;;;22.27;17.07;;;;;;;;;;5013344;28;20189;-83
2021/05/01 09:30:15;;;;;;;29.87;23.80;;;;;;;;;;5002062;28;20189;-83
2021/05/01 09:33:23;;;;;;;42.20;28.87;;;;;;;;;;5013409;28;20189;-83
2021/05/01 09:36:28;;;;;;;25.90;21.10;;;;;;;;;;4989820;28;20576;-83
2021/05/01 09:39:32;;;;;;;22.50;18.87;;;;;;;;;;5004663;28;20662;-83
2021/05/01 09:42:36;;;;;;;21.97;18.00;;;;;;;;;;4988336;28;20201;-84
2021/05/01 09:45:41;;;;;;;22.57;17.23;;;;;;;;;;4985281;28;20224;-84
2021/05/01 09:49:01;;;;;;;21.83;18.10;;;;;;;;;;4985241;28;20587;-84
2021/05/01 09:52:11;;;;;;;21.60;18.03;;;;;;;;;;4974583;28;20194;-84
2021/05/01 09:55:49;;;;;;;19.40;16.47;;;;;;;;;;4996509;28;20245;-83
2021/05/01 09:58:59;;;;;;;22.43;18.50;;;;;;;;;;4964025;28;20652;-83
2021/05/01 10:02:17;;;;;;;22.77;17.07;;;;;;;;;;4999833;28;20208;-82
2021/05/01 10:05:22;;;;;;;23.17;17.40;;;;;;;;;;5033753;28;20239;-83
2021/05/01 10:08:30;;;;;;;21.87;19.17;;;;;;;;;;5011103;28;20192;-83
2021/05/01 10:11:35;;;;;;;20.70;16.33;;;;;;;;;;5010973;28;20192;-81
2021/05/01 10:14:48;;;;;;;18.73;16.37;;;;;;;;;;5016147;28;20212;-85
2021/05/01 10:17:53;;;;;;;19.33;16.13;;;;;;;;;;5004489;28;20189;-84
2021/05/01 10:20:58;;;;;;;18.67;15.27;;;;;;;;;;5015634;28;20201;-82
2021/05/01 10:24:03;;;;;;;17.97;15.97;;;;;;;;;;5023954;28;20175;-84
2021/05/01 10:27:07;;;;;;;20.40;15.77;;;;;;;;;;5024153;28;20180;-85
2021/05/01 10:30:30;;;;;;;18.93;16.00;;;;;;;;;;5002229;28;20203;-86
2021/05/01 10:33:38;;;;;;;17.33;15.40;;;;;;;;;;5013029;28;20196;-84
2021/05/01 10:36:44;;;;;;;27.67;22.30;;;;;;;;;;5012207;28;20595;-82
2021/05/01 10:39:55;;;;;;;17.80;15.93;;;;;;;;;;5023965;28;20188;-82
2021/05/01 10:43:08;;;;;;;38.73;26.13;;;;;;;;;;5012568;28;20199;-83
2021/05/01 10:46:20;;;;;;;22.90;14.63;;;;;;;;;;5024351;28;20223;-86
2021/05/01 10:49:33;;;;;;;17.20;13.47;;;;;;;;;;5003630;28;20188;-86
2021/05/01 10:52:37;;;;;;;15.87;12.73;;;;;;;;;;5004593;28;20188;-87
2021/05/01 10:55:43;;;;;;;14.33;12.93;;;;;;;;;;5004860;28;20228;-86
2021/05/01 10:58:49;;;;;;;13.47;12.07;;;;;;;;;;5004310;28;20185;-87
2021/05/01 11:01:57;;;;;;;12.07;10.87;;;;;;;;;;5004486;28;20192;-86
2021/05/01 11:05:05;;;;;;;18.43;12.80;;;;;;;;;;5003635;28;20698;-85
2021/05/01 11:08:28;;;;;;;12.57;10.60;;;;;;;;;;5003922;28;20194;-84
2021/05/01 11:11:39;;;;;;;12.37;11.07;;;;;;;;;;5003784;28;20189;-86
2021/05/01 11:14:54;;;;;;;14.57;12.57;;;;;;;;;;5014932;28;20232;-85
2021/05/01 11:18:05;;;;;;;11.37;10.20;;;;;;;;;;5003788;28;20188;-86
2021/05/01 11:21:11;;;;;;;10.90;9.80;;;;;;;;;;5014699;28;20184;-89
2021/05/01 11:24:16;;;;;;;12.50;11.30;;;;;;;;;;5003493;28;20193;-85
2021/05/01 11:27:23;;;;;;;11.77;10.67;;;;;;;;;;5003089;28;20184;-84
2021/05/01 11:30:28;;;;;;;12.40;11.10;;;;;;;;;;4991821;28;20679;-84
2021/05/01 11:33:34;;;;;;;10.60;9.63;;;;;;;;;;4992326;28;20552;-83
2021/05/01 11:36:54;;;;;;;12.67;11.47;;;;;;;;;;5014397;28;20217;-84
2021/05/01 11:39:59;;;;;;;13.73;12.43;;;;;;;;;;5005652;28;20189;-83
2021/05/01 11:43:05;;;;;;;12.57;11.47;;;;;;;;;;4981828;28;20196;-84
2021/05/01 11:46:20;;;;;;;13.17;11.90;;;;;;;;;;5004632;28;20224;-86
2021/05/01 11:49:27;;;;;;;14.00;12.70;;;;;;;;;;5009591;28;20219;-85
2021/05/01 11:53:14;;;;;;;12.50;11.40;;;;;;;;;;5011875;28;20180;-84
2021/05/01 11:56:46;;;;;;;13.83;12.60;;;;;;;;;;4995893;28;20714;-86
2021/05/01 11:59:52;;;;;;;13.73;12.30;;;;;;;;;;5034488;28;20180;-85
2021/05/01 12:02:57;;;;;;;13.67;11.90;;;;;;;;;;5022349;28;20187;-85
2021/05/01 12:06:07;;;;;;;13.57;12.27;;;;;;;;;;5022253;28;20211;-84
2021/05/01 12:09:15;;;;;;;13.60;12.40;;;;;;;;;;5011777;28;20195;-85
2021/05/01 12:12:21;;;;;;;14.40;13.10;;;;;;;;;;4999867;28;20200;-85
2021/05/01 12:15:37;;;;;;;15.47;14.00;;;;;;;;;;5022447;28;20235;-86
2021/05/01 12:18:44;;;;;;;15.17;13.73;;;;;;;;;;5023671;28;20539;-86
2021/05/01 12:21:48;;;;;;;18.87;14.03;;;;;;;;;;5035431;28;20191;-85
2021/05/01 12:24:52;;;;;;;15.87;14.47;;;;;;;;;;5033939;28;20710;-85
2021/05/01 12:28:00;;;;;;;16.37;14.87;;;;;;;;;;5011524;28;20204;-86
2021/05/01 12:31:04;;;;;;;16.40;14.90;;;;;;;;;;5013146;28;20191;-84
2021/05/01 12:34:09;;;;;;;14.93;13.63;;;;;;;;;;5024924;28;20203;-85
2021/05/01 12:37:15;;;;;;;14.93;13.63;;;;;;;;;;5035804;28;20196;-85
2021/05/01 12:40:20;;;;;;;14.50;13.20;;;;;;;;;;5016379;28;20197;-85
2021/05/01 12:43:28;;;;;;;15.33;13.73;;;;;;;;;;5014242;28;20193;-86
2021/05/01 12:46:35;;;;;;;14.37;13.07;;;;;;;;;;5002446;28;20738;-85
2021/05/01 12:49:40;;;;;;;14.80;13.40;;;;;;;;;;5032598;28;20211;-85
2021/05/01 12:52:45;;;;;;;14.30;12.90;;;;;;;;;;5029603;28;20183;-85
2021/05/01 12:56:18;;;;;;;13.90;12.50;;;;;;;;;;5025200;28;20588;-84
2021/05/01 12:59:36;;;;;;;14.30;13.00;;;;;;;;;;5003616;28;20663;-87
2021/05/01 13:03:05;;;;;;;15.03;13.63;;;;;;;;;;4992830;28;20188;-84
2021/05/01 13:06:10;;;;;;;14.27;12.87;;;;;;;;;;4984771;28;20235;-84
2021/05/01 13:09:16;;;;;;;13.70;12.30;;;;;;;;;;4993584;28;20181;-81
2021/05/01 13:12:25;;;;;;;13.40;12.10;;;;;;;;;;5006299;28;20199;-84
2021/05/01 13:16:00;;;;;;;13.53;12.23;;;;;;;;;;5002216;28;20227;-85
2021/05/01 13:19:07;;;;;;;13.40;12.10;;;;;;;;;;5000162;28;20195;-84
2021/05/01 13:22:19;;;;;;;15.83;12.43;;;;;;;;;;5014967;28;20207;-84
2021/05/01 13:25:26;;;;;;;12.20;11.00;;;;;;;;;;5014985;28;20591;-84
2021/05/01 13:28:31;;;;;;;12.73;11.43;;;;;;;;;;5006361;28;20208;-86
2021/05/01 13:31:35;;;;;;;13.20;11.97;;;;;;;;;;5006199;28;20204;-84
2021/05/01 13:34:42;;;;;;;13.57;12.27;;;;;;;;;;4994715;28;20185;-84
2021/05/01 13:37:45;;;;;;;14.00;11.63;;;;;;;;;;5006909;28;20257;-84
2021/05/01 13:41:10;;;;;;;12.93;11.43;;;;;;;;;;4997135;28;20185;-85
2021/05/01 13:44:45;;;;;;;13.70;12.20;;;;;;;;;;4993877;28;20552;-83
2021/05/01 13:47:50;;;;;;;21.73;18.57;;;;;;;;;;5025932;28;20192;-85
2021/05/01 13:50:54;;;;;;;13.73;10.70;;;;;;;;;;5013862;28;20627;-84
2021/05/01 13:54:07;;;;;;;13.17;11.80;;;;;;;;;;5038018;28;20207;-85
2021/05/01 13:57:11;;;;;;;10.67;9.57;;;;;;;;;;4995731;28;20189;-86
2021/05/01 14:00:18;;;;;;;10.27;8.80;;;;;;;;;;4985216;28;20185;-85
2021/05/01 14:03:30;;;;;;;10.03;9.03;;;;;;;;;;4985684;28;20689;-86
2021/05/01 14:06:34;;;;;;;14.97;10.97;;;;;;;;;;4996127;28;20684;-85
2021/05/01 14:09:38;;;;;;;14.93;12.03;;;;;;;;;;5008314;28;20200;-86
2021/05/01 14:12:43;;;;;;;18.70;14.47;;;;;;;;;;5005941;28;20181;-86
2021/05/01 14:15:49;;;;;;;15.73;11.30;;;;;;;;;;4983140;28;20232;-85
2021/05/01 14:18:53;;;;;;;17.23;13.07;;;;;;;;;;5002129;28;20209;-85
2021/05/01 14:21:58;;;;;;;14.73;10.13;;;;;;;;;;4993587;28;20196;-85
2021/05/01 14:25:04;;;;;;;13.23;9.57;;;;;;;;;;5004990;28;20216;-85
2021/05/01 14:28:20;;;;;;;18.03;12.07;;;;;;;;;;4994146;28;20189;-85
2021/05/01 14:31:24;;;;;;;9.53;8.53;;;;;;;;;;4994703;28;20192;-85
2021/05/01 14:34:29;;;;;;;14.50;11.70;;;;;;;;;;4996745;28;20178;-86
2021/05/01 14:37:35;;;;;;;12.67;10.60;;;;;;;;;;4997438;28;20563;-86
2021/05/01 14:40:42;;;;;;;15.50;12.93;;;;;;;;;;5019910;28;20208;-86
2021/05/01 14:43:46;;;;;;;16.07;13.13;;;;;;;;;;5009146;28;20185;-86
2021/05/01 14:46:50;;;;;;;13.90;12.10;;;;;;;;;;5026229;28;20197;-86
2021/05/01 14:49:54;;;;;;;21.67;16.23;;;;;;;;;;5017437;28;20187;-86
2021/05/01 14:53:15;;;;;;;18.57;13.30;;;;;;;;;;5017484;28;20192;-86
2021/05/01 14:56:19;;;;;;;10.90;9.43;;;;;;;;;;5009348;28;20714;-86
2021/05/01 14:59:32;;;;;;;10.17;9.07;;;;;;;;;;4998724;28;20513;-86
2021/05/01 15:02:44;;;;;;;15.07;13.07;;;;;;;;;;5010245;28;20181;-86
2021/05/01 15:05:49;;;;;;;14.00;12.13;;;;;;;;;;4998548;28;20224;-86
2021/05/01 15:08:54;;;;;;;12.87;10.70;;;;;;;;;;5009382;28;20189;-86
2021/05/01 15:12:03;;;;;;;13.47;11.23;;;;;;;;;;5009234;28;20181;-86
2021/05/01 15:15:10;;;;;;;16.93;13.53;;;;;;;;;;4991717;28;20224;-86
2021/05/01 15:18:17;;;;;;;17.50;14.70;;;;;;;;;;5015434;28;20215;-86
2021/05/01 15:21:22;;;;;;;16.37;13.90;;;;;;;;;;5009690;28;20204;-82
2021/05/01 15:24:32;;;;;;;18.97;14.23;;;;;;;;;;5009540;28;20211;-84
2021/05/01 15:27:37;;;;;;;17.80;15.33;;;;;;;;;;4997328;28;20192;-84
2021/05/01 15:30:42;;;;;;;20.07;15.30;;;;;;;;;;5011575;28;20247;-83
2021/05/01 15:33:47;;;;;;;20.90;15.40;;;;;;;;;;5002442;28;20188;-85
2021/05/01 15:36:53;;;;;;;18.23;14.77;;;;;;;;;;5025405;28;20219;-84
2021/05/01 15:39:57;;;;;;;19.63;15.90;;;;;;;;;;5026493;28;20196;-85
2021/05/01 15:43:02;;;;;;;20.20;15.87;;;;;;;;;;5037430;28;20199;-84
2021/05/01 15:46:16;;;;;;;20.60;17.17;;;;;;;;;;5024250;28;20230;-83
2021/05/01 15:49:21;;;;;;;23.10;19.63;;;;;;;;;;5024671;28;20179;-84
2021/05/01 15:52:26;;;;;;;22.77;17.77;;;;;;;;;;5028848;28;20167;-84
2021/05/01 15:55:31;;;;;;;25.27;19.10;;;;;;;;;;5025344;28;20236;-84
2021/05/01 15:58:36;;;;;;;25.70;18.57;;;;;;;;;;5026256;28;20198;-84
2021/05/01 16:01:40;;;;;;;26.37;20.27;;;;;;;;;;5037848;28;20191;-85
2021/05/01 16:04:45;;;;;;;34.77;26.90;;;;;;;;;;5033205;28;20231;-85
2021/05/01 16:07:49;;;;;;;25.43;20.97;;;;;;;;;;5023732;28;20195;-84
2021/05/01 16:10:54;;;;;;;24.20;17.93;;;;;;;;;;5024880;28;20199;-85
2021/05/01 16:13:58;;;;;;;25.97;19.80;;;;;;;;;;5045530;28;20195;-86
2021/05/01 16:17:03;;;;;;;23.70;18.07;;;;;;;;;;5024522;28;20592;-84
2021/05/01 16:20:11;;;;;;;26.13;18.00;;;;;;;;;;5034627;28;20191;-84
2021/05/01 16:23:15;;;;;;;22.67;18.07;;;;;;;;;;5011954;28;20183;-85
2021/05/01 16:26:19;;;;;;;23.50;18.33;;;;;;;;;;5028342;28;20220;-83
2021/05/01 16:29:24;;;;;;;25.73;19.80;;;;;;;;;;4994684;28;20195;-83
2021/05/01 16:32:28;;;;;;;23.97;18.17;;;;;;;;;;5022401;28;20187;-83
2021/05/01 16:35:33;;;;;;;25.00;19.37;;;;;;;;;;5015120;28;20223;-84
2021/05/01 16:38:42;;;;;;;25.70;19.30;;;;;;;;;;5026855;28;20596;-85
2021/05/01 16:42:18;;;;;;;27.63;20.37;;;;;;;;;;5014466;28;20228;-83
2021/05/01 16:45:23;;;;;;;29.57;21.83;;;;;;;;;;5028748;28;20630;-84
2021/05/01 16:48:28;;;;;;;27.43;21.03;;;;;;;;;;5030797;28;20187;-84
2021/05/01 16:51:32;;;;;;;27.70;20.60;;;;;;;;;;5018503;28;20180;-88
2021/05/01 16:54:36;;;;;;;28.43;21.33;;;;;;;;;;5012076;28;20585;-83
2021/05/01 16:57:41;;;;;;;30.03;21.43;;;;;;;;;;5028130;28;20227;-85
2021/05/01 17:00:46;;;;;;;30.13;21.97;;;;;;;;;;5006606;28;20188;-85
2021/05/01 17:03:51;;;;;;;28.53;21.57;;;;;;;;;;5017446;28;20226;-84
2021/05/01 17:06:56;;;;;;;27.40;20.93;;;;;;;;;;5004527;28;20575;-84
2021/05/01 17:10:00;;;;;;;29.67;21.43;;;;;;;;;;5015644;28;20551;-85
2021/05/01 17:13:04;;;;;;;29.33;21.83;;;;;;;;;;5024925;28;20188;-85
2021/05/01 17:16:08;;;;;;;30.23;20.80;;;;;;;;;;5026807;28;20239;-85
2021/05/01 17:19:12;;;;;;;32.17;21.87;;;;;;;;;;5015525;28;20188;-84
2021/05/01 17:22:18;;;;;;;30.70;22.47;;;;;;;;;;5003400;28;20204;-84
2021/05/01 17:25:22;;;;;;;32.00;21.47;;;;;;;;;;5014681;28;20247;-87
2021/05/01 17:28:28;;;;;;;26.70;20.70;;;;;;;;;;5003896;28;20180;-87
2021/05/01 17:31:33;;;;;;;29.03;21.03;;;;;;;;;;5027140;28;20204;-85
2021/05/01 17:34:37;;;;;;;27.50;20.77;;;;;;;;;;5015995;28;20195;-85
2021/05/01 17:37:43;;;;;;;30.30;21.33;;;;;;;;;;5015302;28;20212;-86
2021/05/01 17:40:47;;;;;;;29.40;21.13;;;;;;;;;;5004779;28;20199;-85
2021/05/01 17:43:52;;;;;;;30.67;21.73;;;;;;;;;;5028086;28;20184;-84
2021/05/01 17:46:57;;;;;;;35.40;23.63;;;;;;;;;;5041483;28;20200;-84
2021/05/01 17:50:03;;;;;;;28.63;20.37;;;;;;;;;;5027234;28;20192;-85
2021/05/01 17:53:08;;;;;;;30.10;20.80;;;;;;;;;;5016575;28;20200;-85
2021/05/01 17:56:13;;;;;;;32.70;24.67;;;;;;;;;;5016156;28;20215;-85
2021/05/01 17:59:17;;;;;;;36.83;27.07;;;;;;;;;;5017948;28;20188;-84
2021/05/01 18:02:21;;;;;;;31.37;22.50;;;;;;;;;;5019303;28;20181;-85
2021/05/01 18:05:26;;;;;;;40.43;27.40;;;;;;;;;;5006790;28;20691;-87
2021/05/01 18:08:30;;;;;;;36.07;23.27;;;;;;;;;;5018643;28;20197;-85